createdAt,value
2017-08-06T00:00:31.959Z,23.28
2017-08-06T00:01:41.897Z,23.19
2017-08-06T00:02:52.128Z,23.13
2017-08-06T00:04:01.760Z,23.2
2017-08-06T00:05:11.704Z,23.17
2017-08-06T00:06:21.944Z,23.15
2017-08-06T00:07:32.182Z,23.05
2017-08-06T00:08:41.815Z,23.05
2017-08-06T00:09:52.043Z,23.09
2017-08-06T00:11:01.983Z,23.07
2017-08-06T00:12:12.216Z,23.05
2017-08-06T00:13:22.169Z,23.07
2017-08-06T00:14:32.413Z,23.01
2017-08-06T00:15:42.042Z,23.05
2017-08-06T00:16:52.280Z,22.98
2017-08-06T00:18:02.244Z,22.98
2017-08-06T00:19:12.173Z,22.94
2017-08-06T00:20:22.438Z,22.92
2017-08-06T00:21:32.361Z,22.97
2017-08-06T00:22:41.996Z,22.94
2017-08-06T00:23:51.919Z,22.97
2017-08-06T00:25:01.865Z,22.91
2017-08-06T00:26:11.186Z,22.91
2017-08-06T00:27:21.134Z,22.91
2017-08-06T00:28:31.059Z,22.88
2017-08-06T00:29:40.362Z,22.83
2017-08-06T00:30:49.667Z,22.82
2017-08-06T00:31:59.334Z,22.82
2017-08-06T00:33:09.281Z,22.76
2017-08-06T00:34:19.512Z,22.82
2017-08-06T00:35:29.473Z,22.8
2017-08-06T00:36:39.406Z,22.73
2017-08-06T00:37:49.652Z,22.75
2017-08-06T00:38:59.268Z,22.79
2017-08-06T00:40:09.218Z,22.64
2017-08-06T00:41:18.851Z,22.64
2017-08-06T00:42:28.786Z,22.68
2017-08-06T00:43:38.717Z,22.73
2017-08-06T00:44:48.334Z,22.68
2017-08-06T00:45:58.585Z,22.62
2017-08-06T00:47:08.251Z,22.58
2017-08-06T00:48:18.184Z,22.72
2017-08-06T00:49:28.424Z,22.72
2017-08-06T00:50:38.661Z,22.64
2017-08-06T00:51:48.892Z,22.73
2017-08-06T00:52:58.828Z,22.68
2017-08-06T00:54:09.082Z,22.75
2017-08-06T00:55:19.026Z,22.75
2017-08-06T00:56:29.273Z,22.7
2017-08-06T00:57:38.589Z,22.75
2017-08-06T00:58:48.538Z,22.82
2017-08-06T00:59:58.787Z,22.76
2017-08-06T01:01:08.100Z,22.76
2017-08-06T01:02:18.031Z,22.85
2017-08-06T01:03:27.648Z,22.82
2017-08-06T01:04:37.272Z,22.76
2017-08-06T01:05:46.896Z,22.83
2017-08-06T01:06:56.821Z,22.85
2017-08-06T01:08:06.746Z,22.82
2017-08-06T01:09:16.972Z,22.77
2017-08-06T01:10:25.973Z,22.79
2017-08-06T01:11:36.216Z,22.8
2017-08-06T01:12:46.447Z,22.83
2017-08-06T01:13:56.389Z,22.76
2017-08-06T01:15:06.314Z,22.73
2017-08-06T01:16:16.258Z,22.7
2017-08-06T01:17:26.507Z,22.73
2017-08-06T01:18:36.131Z,22.68
2017-08-06T01:19:46.055Z,22.7
2017-08-06T01:20:55.686Z,22.68
2017-08-06T01:22:05.602Z,22.67
2017-08-06T01:23:15.517Z,22.64
2017-08-06T01:24:25.452Z,22.57
2017-08-06T01:25:35.070Z,22.61
2017-08-06T01:26:45.001Z,22.6
2017-08-06T01:27:54.936Z,22.52
2017-08-06T01:29:04.856Z,22.6
2017-08-06T01:30:15.095Z,22.64
2017-08-06T01:31:25.029Z,22.52
2017-08-06T01:32:34.650Z,22.49
2017-08-06T01:33:44.876Z,22.45
2017-08-06T01:34:54.805Z,22.43
2017-08-06T01:36:04.749Z,22.35
2017-08-06T01:37:14.377Z,22.39
2017-08-06T01:38:23.398Z,22.33
2017-08-06T01:39:33.021Z,22.3
2017-08-06T01:40:43.268Z,22.31
2017-08-06T01:41:53.199Z,22.24
2017-08-06T01:43:03.438Z,22.27
2017-08-06T01:44:13.684Z,22.28
2017-08-06T01:45:23.318Z,22.28
2017-08-06T01:46:33.256Z,22.28
2017-08-06T01:47:43.499Z,22.28
2017-08-06T01:48:53.732Z,22.28
2017-08-06T01:50:03.975Z,22.3
2017-08-06T01:51:13.919Z,22.31
2017-08-06T01:52:23.547Z,22.25
2017-08-06T01:53:33.180Z,22.21
2017-08-06T01:54:43.108Z,22.18
2017-08-06T01:55:53.376Z,22.27
2017-08-06T01:57:03.686Z,22.28
2017-08-06T01:58:13.032Z,22.22
2017-08-06T01:59:23.265Z,22.18
2017-08-06T02:00:33.510Z,22.22
2017-08-06T02:01:43.755Z,22.27
2017-08-06T02:02:53.371Z,22.33
2017-08-06T02:04:03.622Z,22.21
2017-08-06T02:05:13.854Z,22.18
2017-08-06T02:06:23.779Z,22.18
2017-08-06T02:07:33.083Z,22.21
2017-08-06T02:08:43.313Z,22.21
2017-08-06T02:09:52.930Z,22.14
2017-08-06T02:11:02.850Z,22.22
2017-08-06T02:12:12.161Z,22.21
2017-08-06T02:13:22.390Z,22.14
2017-08-06T02:14:32.615Z,22.07
2017-08-06T02:15:42.547Z,22.14
2017-08-06T02:16:52.784Z,22.18
2017-08-06T02:18:02.098Z,22.15
2017-08-06T02:19:12.363Z,22.14
2017-08-06T02:20:22.297Z,22.21
2017-08-06T02:21:32.531Z,22.17
2017-08-06T02:22:42.468Z,22.17
2017-08-06T02:23:52.714Z,22.17
2017-08-06T02:25:02.336Z,22.14
2017-08-06T02:26:11.968Z,22.05
2017-08-06T02:27:21.596Z,22.07
2017-08-06T02:28:31.825Z,22.05
2017-08-06T02:29:41.752Z,22.06
2017-08-06T02:30:51.993Z,22.05
2017-08-06T02:32:01.626Z,22.12
2017-08-06T02:33:11.547Z,21.96
2017-08-06T02:34:20.852Z,21.99
2017-08-06T02:35:30.787Z,21.91
2017-08-06T02:36:41.026Z,22.02
2017-08-06T02:37:50.957Z,21.98
2017-08-06T02:39:00.891Z,21.91
2017-08-06T02:40:10.822Z,21.98
2017-08-06T02:41:21.061Z,21.91
2017-08-06T02:42:30.680Z,21.94
2017-08-06T02:43:40.604Z,21.94
2017-08-06T02:44:50.565Z,21.94
2017-08-06T02:46:00.206Z,21.99
2017-08-06T02:47:10.833Z,21.94
2017-08-06T02:48:20.764Z,21.91
2017-08-06T02:49:30.699Z,21.91
2017-08-06T02:50:40.632Z,21.92
2017-08-06T02:51:50.433Z,21.74
2017-08-06T02:53:00.677Z,21.88
2017-08-06T02:54:10.922Z,21.88
2017-08-06T02:55:20.554Z,21.77
2017-08-06T02:56:30.178Z,21.83
2017-08-06T02:57:40.112Z,21.91
2017-08-06T02:58:49.731Z,21.82
2017-08-06T02:59:59.658Z,21.83
2017-08-06T03:01:09.595Z,21.79
2017-08-06T03:02:19.828Z,21.8
2017-08-06T03:03:29.455Z,21.77
2017-08-06T03:04:39.687Z,21.79
2017-08-06T03:05:49.640Z,21.71
2017-08-06T03:06:59.577Z,21.74
2017-08-06T03:08:09.500Z,21.71
2017-08-06T03:09:19.734Z,21.75
2017-08-06T03:10:29.962Z,21.74
2017-08-06T03:11:38.988Z,21.75
2017-08-06T03:12:48.920Z,21.69
2017-08-06T03:16:30.938Z,21.77
2017-08-06T03:17:41.168Z,21.74
2017-08-06T03:18:51.086Z,21.65
2017-08-06T03:20:01.316Z,21.65
2017-08-06T03:21:10.943Z,21.67
2017-08-06T03:22:21.184Z,21.67
2017-08-06T03:23:31.121Z,21.67
2017-08-06T03:24:41.764Z,21.62
2017-08-06T03:25:51.395Z,21.71
2017-08-06T03:27:01.699Z,21.64
2017-08-06T03:28:11.772Z,21.61
2017-08-06T03:29:21.397Z,21.61
2017-08-06T03:30:31.645Z,21.62
2017-08-06T03:31:41.268Z,21.65
2017-08-06T03:32:51.205Z,21.65
2017-08-06T03:34:01.125Z,21.53
2017-08-06T03:35:11.351Z,21.61
2017-08-06T03:36:21.584Z,21.56
2017-08-06T03:37:31.834Z,21.52
2017-08-06T03:38:42.073Z,21.53
2017-08-06T03:39:52.302Z,21.61
2017-08-06T03:41:02.523Z,21.53
2017-08-06T03:42:12.446Z,21.52
2017-08-06T03:43:22.670Z,21.44
2017-08-06T03:44:32.892Z,21.5
2017-08-06T03:45:43.120Z,21.4
2017-08-06T03:46:52.739Z,21.49
2017-08-06T03:48:02.988Z,21.5
2017-08-06T03:49:13.224Z,21.47
2017-08-06T03:50:22.842Z,21.4
2017-08-06T03:51:32.765Z,21.52
2017-08-06T03:52:42.991Z,21.37
2017-08-06T03:53:52.923Z,21.47
2017-08-06T03:55:02.549Z,21.43
2017-08-06T03:56:12.179Z,21.4
2017-08-06T03:57:22.115Z,21.38
2017-08-06T03:58:32.367Z,21.4
2017-08-06T03:59:42.306Z,21.37
2017-08-06T04:00:51.966Z,21.42
2017-08-06T04:02:01.945Z,21.42
2017-08-06T04:03:11.919Z,21.31
2017-08-06T04:04:22.167Z,21.37
2017-08-06T04:05:32.112Z,21.35
2017-08-06T04:06:42.334Z,21.32
2017-08-06T04:07:51.648Z,21.32
2017-08-06T04:09:01.271Z,21.31
2017-08-06T04:10:11.212Z,21.32
2017-08-06T04:11:21.465Z,21.32
2017-08-06T04:12:31.088Z,21.27
2017-08-06T04:13:41.335Z,21.28
2017-08-06T04:14:51.265Z,21.32
2017-08-06T04:16:01.189Z,21.24
2017-08-06T04:17:11.129Z,21.22
2017-08-06T04:18:20.738Z,21.29
2017-08-06T04:19:30.352Z,21.22
2017-08-06T04:20:40.612Z,21.22
2017-08-06T04:21:50.565Z,21.22
2017-08-06T04:23:00.500Z,21.24
2017-08-06T04:24:10.131Z,21.27
2017-08-06T04:25:20.065Z,21.31
2017-08-06T04:26:29.999Z,21.27
2017-08-06T04:27:39.932Z,21.32
2017-08-06T04:28:49.861Z,21.28
2017-08-06T04:30:00.080Z,21.29
2017-08-06T04:31:10.011Z,21.28
2017-08-06T04:32:19.628Z,21.27
2017-08-06T04:33:29.553Z,21.32
2017-08-06T04:34:39.199Z,21.37
2017-08-06T04:35:48.814Z,21.28
2017-08-06T04:36:59.048Z,21.31
2017-08-06T04:38:08.975Z,21.31
2017-08-06T04:39:18.584Z,21.25
2017-08-06T04:40:28.565Z,21.32
2017-08-06T04:41:38.515Z,21.29
2017-08-06T04:42:48.443Z,21.38
2017-08-06T04:43:58.674Z,21.35
2017-08-06T04:45:08.293Z,21.42
2017-08-06T04:46:18.539Z,21.47
2017-08-06T04:47:27.846Z,21.42
2017-08-06T04:48:37.452Z,21.37
2017-08-06T04:49:47.401Z,21.46
2017-08-06T04:50:57.024Z,21.46
2017-08-06T04:52:06.673Z,21.43
2017-08-06T04:53:15.994Z,21.42
2017-08-06T04:54:25.910Z,21.37
2017-08-06T04:55:35.841Z,21.43
2017-08-06T04:56:45.150Z,21.49
2017-08-06T04:57:54.774Z,21.52
2017-08-06T04:59:04.689Z,21.49
2017-08-06T05:00:14.928Z,21.54
2017-08-06T05:01:25.167Z,21.54
2017-08-06T05:02:35.086Z,21.53
2017-08-06T05:03:45.013Z,21.58
2017-08-06T05:04:54.947Z,21.58
2017-08-06T05:06:04.873Z,21.68
2017-08-06T05:07:14.190Z,21.62
2017-08-06T05:08:24.457Z,21.75
2017-08-06T05:09:34.383Z,21.74
2017-08-06T05:10:44.307Z,21.77
2017-08-06T05:11:53.920Z,21.74
2017-08-06T05:13:03.844Z,21.9
2017-08-06T05:14:14.090Z,21.86
2017-08-06T05:15:23.716Z,21.9
2017-08-06T05:16:33.631Z,22.03
2017-08-06T05:17:43.553Z,21.96
2017-08-06T05:18:52.857Z,22
2017-08-06T05:20:03.082Z,21.94
2017-08-06T05:21:13.009Z,21.99
2017-08-06T05:22:22.937Z,22.12
2017-08-06T05:23:32.558Z,22.2
2017-08-06T05:24:42.478Z,22.17
2017-08-06T05:25:52.719Z,22.25
2017-08-06T05:27:02.649Z,22.4
2017-08-06T05:28:12.875Z,22.65
2017-08-06T05:29:22.805Z,22.72
2017-08-06T05:30:33.027Z,22.97
2017-08-06T05:31:42.663Z,23.12
2017-08-06T05:32:52.605Z,23.25
2017-08-06T05:34:02.535Z,23.35
2017-08-06T05:35:12.775Z,23.43
2017-08-06T05:36:23.009Z,23.35
2017-08-06T05:37:32.946Z,23.39
2017-08-06T05:38:42.885Z,23.2
2017-08-06T05:39:53.124Z,23.25
2017-08-06T05:41:03.051Z,23.09
2017-08-06T05:42:12.982Z,23.02
2017-08-06T05:43:22.598Z,22.97
2017-08-06T05:44:32.539Z,22.85
2017-08-06T05:45:42.770Z,22.79
2017-08-06T05:46:52.997Z,22.73
2017-08-06T05:48:02.631Z,22.7
2017-08-06T05:49:12.551Z,22.57
2017-08-06T05:50:22.168Z,22.65
2017-08-06T05:51:32.092Z,22.57
2017-08-06T05:52:42.016Z,22.55
2017-08-06T05:53:52.244Z,22.55
2017-08-06T05:55:01.883Z,22.39
2017-08-06T05:56:11.512Z,22.37
2017-08-06T05:57:21.764Z,22.46
2017-08-06T05:58:31.080Z,22.36
2017-08-06T05:59:40.694Z,22.35
2017-08-06T06:00:50.350Z,22.33
2017-08-06T06:02:00.593Z,22.3
2017-08-06T06:03:10.523Z,22.27
2017-08-06T06:04:20.468Z,22.24
2017-08-06T06:05:29.772Z,22.27
2017-08-06T06:06:39.704Z,22.17
2017-08-06T06:07:49.945Z,22.21
2017-08-06T06:09:00.180Z,22.2
2017-08-06T06:10:10.114Z,22.17
2017-08-06T06:11:20.349Z,22.1
2017-08-06T06:12:30.274Z,22.07
2017-08-06T06:13:40.503Z,22.03
2017-08-06T06:14:50.422Z,21.98
2017-08-06T06:16:00.043Z,22
2017-08-06T06:17:10.287Z,22.02
2017-08-06T06:18:20.528Z,21.99
2017-08-06T06:19:30.764Z,21.96
2017-08-06T06:20:41.006Z,21.96
2017-08-06T06:21:51.236Z,21.98
2017-08-06T06:23:01.186Z,21.91
2017-08-06T06:24:10.520Z,21.96
2017-08-06T06:25:20.155Z,21.91
2017-08-06T06:26:29.783Z,21.84
2017-08-06T06:27:39.719Z,21.86
2017-08-06T06:28:49.800Z,21.82
2017-08-06T06:30:00.033Z,21.77
2017-08-06T06:31:09.718Z,21.74
2017-08-06T06:32:19.649Z,21.88
2017-08-06T06:33:29.299Z,21.8
2017-08-06T06:34:39.558Z,21.83
2017-08-06T06:35:48.876Z,21.8
2017-08-06T06:36:58.824Z,21.86
2017-08-06T06:38:09.070Z,21.77
2017-08-06T06:39:18.699Z,21.68
2017-08-06T06:40:28.620Z,21.67
2017-08-06T06:41:38.540Z,21.74
2017-08-06T06:42:48.171Z,21.72
2017-08-06T06:43:58.095Z,21.72
2017-08-06T06:45:08.705Z,21.74
2017-08-06T06:46:18.321Z,21.77
2017-08-06T06:47:28.580Z,21.68
2017-08-06T06:48:38.821Z,21.67
2017-08-06T06:49:48.750Z,21.64
2017-08-06T06:50:59.041Z,21.69
2017-08-06T06:52:09.434Z,21.77
2017-08-06T06:53:19.402Z,21.74
2017-08-06T06:54:30.015Z,21.96
2017-08-06T06:55:40.745Z,21.9
2017-08-06T06:56:50.985Z,21.99
2017-08-06T06:58:01.029Z,22.02
2017-08-06T06:59:10.736Z,21.98
2017-08-06T07:00:20.659Z,21.99
2017-08-06T07:01:30.412Z,21.96
2017-08-06T07:02:40.352Z,22.06
2017-08-06T07:03:50.290Z,22.06
2017-08-06T07:05:00.524Z,22.14
2017-08-06T07:06:10.634Z,22.18
2017-08-06T07:07:21.143Z,22.27
2017-08-06T07:08:31.402Z,22.28
2017-08-06T07:09:41.581Z,22.33
2017-08-06T07:10:51.515Z,22.31
2017-08-06T07:12:02.487Z,22.36
2017-08-06T07:13:12.515Z,22.43
2017-08-06T07:14:22.133Z,22.45
2017-08-06T07:15:32.461Z,22.58
2017-08-06T07:16:42.435Z,22.52
2017-08-06T07:17:52.063Z,22.57
2017-08-06T07:19:02.016Z,22.73
2017-08-06T07:20:11.945Z,22.9
2017-08-06T07:21:22.221Z,23.27
2017-08-06T07:22:32.474Z,23.78
2017-08-06T07:23:42.403Z,24.31
2017-08-06T07:24:52.628Z,24.91
2017-08-06T07:26:02.893Z,25.36
2017-08-06T07:27:12.807Z,25.8
2017-08-06T07:28:23.058Z,26.1
2017-08-06T07:29:32.988Z,26.28
2017-08-06T07:30:42.927Z,26.36
2017-08-06T07:31:53.195Z,26.57
2017-08-06T07:33:02.507Z,26.87
2017-08-06T07:34:12.433Z,27.18
2017-08-06T07:35:22.056Z,27.31
2017-08-06T07:36:32.016Z,27.21
2017-08-06T07:37:41.646Z,26.95
2017-08-06T07:38:51.587Z,26.73
2017-08-06T07:40:01.824Z,26.45
2017-08-06T07:41:11.445Z,26.36
2017-08-06T07:42:21.707Z,26.3
2017-08-06T07:43:31.349Z,26.32
2017-08-06T07:44:41.283Z,26.65
2017-08-06T07:45:51.565Z,26.75
2017-08-06T07:47:01.487Z,26.67
2017-08-06T07:48:11.408Z,26.47
2017-08-06T07:49:21.353Z,26.36
2017-08-06T07:50:31.286Z,26.21
2017-08-06T07:51:41.511Z,26.12
2017-08-06T07:52:51.137Z,25.98
2017-08-06T07:54:01.398Z,25.9
2017-08-06T07:55:11.659Z,25.72
2017-08-06T07:56:21.586Z,25.72
2017-08-06T07:57:31.522Z,25.55
2017-08-06T07:58:41.450Z,25.57
2017-08-06T07:59:51.677Z,25.47
2017-08-06T08:01:01.617Z,25.39
2017-08-06T08:02:11.241Z,25.43
2017-08-06T08:03:21.482Z,25.58
2017-08-06T08:04:31.732Z,25.77
2017-08-06T08:05:41.673Z,25.95
2017-08-06T08:06:51.615Z,25.95
2017-08-06T08:08:01.246Z,25.94
2017-08-06T08:09:11.516Z,25.82
2017-08-06T08:10:21.132Z,25.72
2017-08-06T08:11:30.757Z,25.67
2017-08-06T08:12:40.382Z,25.69
2017-08-06T08:13:49.726Z,25.51
2017-08-06T08:14:59.983Z,25.6
2017-08-06T08:16:09.614Z,25.5
2017-08-06T08:17:18.937Z,25.36
2017-08-06T08:18:28.868Z,25.39
2017-08-06T08:19:39.108Z,25.36
2017-08-06T08:20:49.039Z,25.35
2017-08-06T08:21:58.959Z,25.38
2017-08-06T08:23:08.592Z,25.33
2017-08-06T08:24:18.842Z,25.3
2017-08-06T08:25:28.473Z,25.28
2017-08-06T08:26:38.710Z,25.39
2017-08-06T08:27:48.646Z,25.57
2017-08-06T08:28:58.592Z,25.9
2017-08-06T08:30:08.218Z,26.06
2017-08-06T08:31:18.148Z,26.44
2017-08-06T08:32:27.771Z,26.7
2017-08-06T08:33:37.693Z,26.95
2017-08-06T08:34:47.308Z,27.27
2017-08-06T08:35:57.244Z,27.43
2017-08-06T08:37:06.556Z,27.67
2017-08-06T08:38:15.917Z,27.94
2017-08-06T08:39:25.847Z,28.21
2017-08-06T08:40:35.774Z,28.39
2017-08-06T08:41:45.413Z,28.31
2017-08-06T08:42:54.424Z,28.22
2017-08-06T08:44:04.684Z,28.02
2017-08-06T08:45:14.327Z,27.82
2017-08-06T08:46:24.261Z,27.59
2017-08-06T08:47:34.490Z,27.36
2017-08-06T08:48:43.503Z,27.32
2017-08-06T08:49:53.470Z,27.44
2017-08-06T08:51:03.091Z,27.63
2017-08-06T08:52:13.029Z,27.72
2017-08-06T08:53:23.295Z,28.03
2017-08-06T08:54:32.948Z,28.48
2017-08-06T08:55:43.230Z,28.73
2017-08-06T08:56:53.184Z,29.12
2017-08-06T08:58:03.454Z,29.49
2017-08-06T08:59:13.691Z,29.55
2017-08-06T09:00:23.940Z,29.58
2017-08-06T09:01:33.878Z,29.79
2017-08-06T09:02:44.123Z,29.97
2017-08-06T09:03:53.443Z,29.95
2017-08-06T09:05:03.412Z,29.78
2017-08-06T09:06:13.685Z,29.42
2017-08-06T09:07:23.317Z,29.11
2017-08-06T09:08:33.564Z,28.77
2017-08-06T09:09:43.502Z,28.55
2017-08-06T09:10:53.434Z,28.21
2017-08-06T09:12:03.371Z,27.97
2017-08-06T09:13:13.037Z,27.87
2017-08-06T09:14:23.300Z,27.59
2017-08-06T09:15:33.230Z,27.36
2017-08-06T09:16:43.469Z,27.31
2017-08-06T09:17:53.719Z,27.17
2017-08-06T09:19:03.958Z,26.97
2017-08-06T09:20:14.201Z,26.88
2017-08-06T09:21:24.159Z,26.81
2017-08-06T09:22:34.404Z,26.62
2017-08-06T09:23:44.040Z,26.52
2017-08-06T09:24:54.302Z,26.36
2017-08-06T09:26:04.258Z,26.25
2017-08-06T09:27:14.208Z,26.2
2017-08-06T09:28:24.159Z,26.12
2017-08-06T09:29:34.419Z,26.02
2017-08-06T09:30:44.655Z,26.07
2017-08-06T09:31:54.595Z,25.91
2017-08-06T09:33:04.255Z,25.92
2017-08-06T09:34:13.580Z,25.82
2017-08-06T09:35:23.227Z,25.76
2017-08-06T09:36:33.177Z,25.76
2017-08-06T09:37:43.102Z,25.7
2017-08-06T09:38:52.424Z,25.6
2017-08-06T09:40:02.038Z,25.7
2017-08-06T09:41:12.288Z,25.6
2017-08-06T09:42:21.926Z,25.61
2017-08-06T09:43:31.855Z,25.57
2017-08-06T09:44:42.108Z,25.52
2017-08-06T09:45:51.749Z,25.5
2017-08-06T09:47:02.017Z,25.47
2017-08-06T09:48:11.969Z,25.33
2017-08-06T09:49:22.240Z,25.33
2017-08-06T09:50:32.482Z,25.38
2017-08-06T09:51:42.747Z,25.32
2017-08-06T09:52:52.667Z,25.33
2017-08-06T09:54:02.887Z,25.35
2017-08-06T09:55:12.825Z,25.28
2017-08-06T09:56:22.814Z,25.36
2017-08-06T09:57:32.446Z,25.25
2017-08-06T09:58:42.696Z,25.32
2017-08-06T09:59:52.633Z,25.28
2017-08-06T10:01:02.585Z,25.28
2017-08-06T10:02:12.594Z,25.3
2017-08-06T10:03:22.518Z,25.3
2017-08-06T10:04:32.467Z,25.23
2017-08-06T10:05:42.383Z,25.17
2017-08-06T10:06:52.630Z,25.18
2017-08-06T10:08:02.560Z,25.18
2017-08-06T10:09:12.511Z,25.18
2017-08-06T10:10:22.487Z,25.15
2017-08-06T10:11:32.125Z,25.08
2017-08-06T10:12:42.362Z,25.17
2017-08-06T10:13:52.316Z,25.09
2017-08-06T10:15:02.564Z,25.06
2017-08-06T10:16:12.508Z,25.15
2017-08-06T10:17:22.446Z,25.08
2017-08-06T10:18:32.691Z,25.06
2017-08-06T10:19:42.935Z,25.05
2017-08-06T10:20:53.172Z,25.03
2017-08-06T10:22:03.426Z,25
2017-08-06T10:23:13.355Z,24.98
2017-08-06T10:24:23.612Z,25.05
2017-08-06T10:25:33.235Z,24.96
2017-08-06T10:26:42.856Z,25.05
2017-08-06T10:27:52.772Z,25
2017-08-06T10:29:02.688Z,24.96
2017-08-06T10:30:12.933Z,24.96
2017-08-06T10:31:23.169Z,24.98
2017-08-06T10:32:32.481Z,24.95
2017-08-06T10:33:42.104Z,24.93
2017-08-06T10:34:51.715Z,24.95
2017-08-06T10:36:01.344Z,24.91
2017-08-06T10:37:11.572Z,24.93
2017-08-06T10:40:53.574Z,24.95
2017-08-06T10:42:03.215Z,24.95
2017-08-06T10:43:12.851Z,24.93
2017-08-06T10:44:23.089Z,24.95
2017-08-06T10:45:33.009Z,24.85
2017-08-06T10:46:42.939Z,24.88
2017-08-06T10:47:52.269Z,24.84
2017-08-06T10:49:01.906Z,24.95
2017-08-06T10:50:11.847Z,24.85
2017-08-06T10:51:21.781Z,24.93
2017-08-06T10:52:31.407Z,24.91
2017-08-06T10:53:41.342Z,24.93
2017-08-06T10:54:50.972Z,24.78
2017-08-06T10:56:00.917Z,24.88
2017-08-06T10:57:10.543Z,24.91
2017-08-06T10:58:20.482Z,24.93
2017-08-06T10:59:30.429Z,24.93
2017-08-06T11:00:40.368Z,24.93
2017-08-06T11:01:50.001Z,24.96
2017-08-06T11:02:59.941Z,24.95
2017-08-06T11:04:10.181Z,24.91
2017-08-06T11:05:20.121Z,24.98
2017-08-06T11:06:30.051Z,24.91
2017-08-06T11:07:39.985Z,24.93
2017-08-06T11:08:48.981Z,24.91
2017-08-06T11:09:58.611Z,24.95
2017-08-06T11:11:08.232Z,24.91
2017-08-06T11:12:18.478Z,24.88
2017-08-06T11:13:28.093Z,24.83
2017-08-06T11:14:38.025Z,24.88
2017-08-06T11:15:47.948Z,24.96
2017-08-06T11:16:57.593Z,24.96
2017-08-06T11:18:07.240Z,24.91
2017-08-06T11:19:16.246Z,24.91
2017-08-06T11:20:26.180Z,24.95
2017-08-06T11:21:36.116Z,24.9
2017-08-06T11:22:46.045Z,24.9
2017-08-06T11:23:55.968Z,24.93
2017-08-06T11:25:05.895Z,24.91
2017-08-06T11:26:15.516Z,24.95
2017-08-06T11:27:25.142Z,24.93
2017-08-06T11:28:34.764Z,24.9
2017-08-06T11:29:44.374Z,24.98
2017-08-06T11:30:54.315Z,24.93
2017-08-06T11:32:03.934Z,24.9
2017-08-06T11:33:14.176Z,24.88
2017-08-06T11:34:24.416Z,24.95
2017-08-06T11:35:34.349Z,24.87
2017-08-06T11:36:44.267Z,24.93
2017-08-06T11:37:54.198Z,24.95
2017-08-06T11:39:03.526Z,24.88
2017-08-06T11:40:13.449Z,24.96
2017-08-06T11:41:23.375Z,24.93
2017-08-06T11:42:33.326Z,24.96
2017-08-06T11:43:42.966Z,24.88
2017-08-06T11:44:53.202Z,24.88
2017-08-06T11:46:02.814Z,24.88
2017-08-06T11:47:12.747Z,24.91
2017-08-06T11:48:22.363Z,24.93
2017-08-06T11:49:32.590Z,24.93
2017-08-06T11:50:41.904Z,24.91
2017-08-06T11:51:51.855Z,24.88
2017-08-06T11:53:01.474Z,24.85
2017-08-06T11:54:11.720Z,24.93
2017-08-06T11:55:21.354Z,24.93
2017-08-06T11:56:30.969Z,24.91
2017-08-06T11:57:41.195Z,24.95
2017-08-06T11:58:51.150Z,24.91
2017-08-06T12:00:00.771Z,24.9
2017-08-06T12:01:10.397Z,24.85
2017-08-06T12:02:19.705Z,24.87
2017-08-06T12:03:29.932Z,24.83
2017-08-06T12:04:39.556Z,24.93
2017-08-06T12:05:49.797Z,24.95
2017-08-06T12:06:59.109Z,24.85
2017-08-06T12:08:08.739Z,24.88
2017-08-06T12:09:18.080Z,24.8
2017-08-06T12:10:28.012Z,24.78
2017-08-06T12:11:37.976Z,24.9
2017-08-06T12:12:47.278Z,24.93
2017-08-06T12:13:57.552Z,24.84
2017-08-06T12:15:06.863Z,24.83
2017-08-06T12:16:16.188Z,24.84
2017-08-06T12:17:25.503Z,24.88
2017-08-06T12:18:35.748Z,24.81
2017-08-06T12:19:45.669Z,24.78
2017-08-06T12:20:54.994Z,24.91
2017-08-06T12:22:04.608Z,24.95
2017-08-06T12:23:14.543Z,24.87
2017-08-06T12:24:24.506Z,24.93
2017-08-06T12:25:34.447Z,24.9
2017-08-06T12:26:44.079Z,24.95
2017-08-06T12:27:54.309Z,24.95
2017-08-06T12:29:04.557Z,24.99
2017-08-06T12:30:14.503Z,24.99
2017-08-06T12:31:24.492Z,24.99
2017-08-06T12:32:34.422Z,24.98
2017-08-06T12:33:44.664Z,24.96
2017-08-06T12:34:54.293Z,24.98
2017-08-06T12:36:04.535Z,24.91
2017-08-06T12:37:14.535Z,24.95
2017-08-06T12:38:24.775Z,24.95
2017-08-06T12:39:34.407Z,24.95
2017-08-06T12:40:44.339Z,24.93
2017-08-06T12:41:54.586Z,24.96
2017-08-06T12:43:04.231Z,25
2017-08-06T12:44:14.526Z,24.93
2017-08-06T12:45:24.480Z,25
2017-08-06T12:46:34.432Z,24.98
2017-08-06T12:47:44.946Z,24.99
2017-08-06T12:48:54.933Z,25.02
2017-08-06T12:50:04.599Z,24.93
2017-08-06T12:51:14.870Z,24.93
2017-08-06T12:52:24.905Z,25.02
2017-08-06T12:53:35.199Z,24.96
2017-08-06T12:54:44.849Z,24.95
2017-08-06T12:55:54.815Z,24.99
2017-08-06T12:57:05.317Z,25.03
2017-08-06T12:58:15.265Z,25
2017-08-06T12:59:25.221Z,24.98
2017-08-06T13:00:34.842Z,25.06
2017-08-06T13:01:44.476Z,25.09
2017-08-06T13:02:54.148Z,25.08
2017-08-06T13:04:04.139Z,25.13
2017-08-06T13:05:14.124Z,25.02
2017-08-06T13:06:23.824Z,25.1
2017-08-06T13:07:33.487Z,25
2017-08-06T13:08:43.798Z,25.1
2017-08-06T13:09:53.486Z,25.06
2017-08-06T13:11:03.745Z,25.05
2017-08-06T13:12:13.374Z,25.05
2017-08-06T13:13:23.316Z,25.06
2017-08-06T13:14:33.267Z,25.13
2017-08-06T13:15:42.966Z,25.09
2017-08-06T13:16:52.922Z,25.18
2017-08-06T13:18:02.576Z,25.18
2017-08-06T13:19:12.230Z,25.14
2017-08-06T13:20:22.205Z,25.23
2017-08-06T13:21:32.183Z,25.14
2017-08-06T13:22:42.178Z,25.27
2017-08-06T13:23:52.134Z,25.2
2017-08-06T13:25:02.419Z,25.35
2017-08-06T13:26:12.044Z,25.28
2017-08-06T13:27:21.713Z,25.35
2017-08-06T13:28:32.009Z,25.32
2017-08-06T13:29:42.028Z,25.28
2017-08-06T13:30:51.375Z,25.35
2017-08-06T13:32:01.330Z,25.27
2017-08-06T13:33:11.299Z,25.2
2017-08-06T13:34:21.262Z,25.06
2017-08-06T13:35:31.210Z,25
2017-08-06T13:36:41.494Z,24.87
2017-08-06T13:37:51.801Z,24.91
2017-08-06T13:39:01.152Z,24.84
2017-08-06T13:40:10.505Z,24.83
2017-08-06T13:41:20.786Z,24.78
2017-08-06T13:42:30.443Z,24.78
2017-08-06T13:43:40.397Z,24.68
2017-08-06T13:44:50.082Z,24.67
2017-08-06T13:46:00.363Z,24.57
2017-08-06T13:47:10.321Z,24.5
2017-08-06T13:48:20.341Z,24.47
2017-08-06T13:49:30.329Z,24.47
2017-08-06T13:50:40.318Z,24.31
2017-08-06T13:51:50.595Z,24.27
2017-08-06T13:53:00.556Z,24.32
2017-08-06T13:54:10.857Z,24.3
2017-08-06T13:55:20.536Z,24.22
2017-08-06T13:56:30.786Z,24.2
2017-08-06T13:57:40.845Z,24.06
2017-08-06T13:58:50.541Z,24.18
2017-08-06T14:00:00.183Z,24.12
2017-08-06T14:01:10.442Z,24.08
2017-08-06T14:02:20.119Z,23.94
2017-08-06T14:03:30.395Z,24.03
2017-08-06T14:04:40.065Z,23.94
2017-08-06T14:05:49.098Z,23.97
2017-08-06T14:06:58.755Z,23.98
2017-08-06T14:08:08.399Z,23.91
2017-08-06T14:09:18.373Z,23.88
2017-08-06T14:10:28.371Z,23.93
2017-08-06T14:11:37.699Z,23.94
2017-08-06T14:12:47.360Z,23.93
2017-08-06T14:13:57.325Z,23.93
2017-08-06T14:15:07.307Z,23.95
2017-08-06T14:16:16.685Z,23.91
2017-08-06T14:17:26.634Z,23.93
2017-08-06T14:18:36.576Z,23.93
2017-08-06T14:19:45.909Z,23.88
2017-08-06T14:20:55.528Z,23.87
2017-08-06T14:22:05.452Z,23.94
2017-08-06T14:23:15.425Z,23.9
2017-08-06T14:24:25.423Z,23.91
2017-08-06T14:25:35.079Z,23.97
2017-08-06T14:26:45.024Z,23.95
2017-08-06T14:27:54.668Z,23.91
2017-08-06T14:29:04.897Z,24.03
2017-08-06T14:30:14.523Z,24.06
2017-08-06T14:31:24.465Z,24.02
2017-08-06T14:32:34.392Z,24.15
2017-08-06T14:33:44.326Z,24.2
2017-08-06T14:34:54.554Z,24.08
2017-08-06T14:36:04.203Z,24.09
2017-08-06T14:37:14.125Z,24.2
2017-08-06T14:38:23.454Z,24.2
2017-08-06T14:39:33.083Z,24.12
2017-08-06T14:40:43.372Z,24.15
2017-08-06T14:41:52.993Z,24.24
2017-08-06T14:43:02.766Z,24.27
2017-08-06T14:44:12.382Z,24.1
2017-08-06T14:45:21.701Z,24.18
2017-08-06T14:46:31.761Z,24.27
2017-08-06T14:47:42.101Z,24.18
2017-08-06T14:48:52.414Z,24.24
2017-08-06T14:50:02.370Z,24.3
2017-08-06T14:51:12.131Z,24.09
2017-08-06T14:52:22.393Z,24.32
2017-08-06T14:53:32.094Z,24.18
2017-08-06T14:54:41.450Z,24.27
2017-08-06T14:55:51.129Z,24.28
2017-08-06T14:57:01.081Z,24.32
2017-08-06T14:58:11.071Z,24.28
2017-08-06T14:59:20.786Z,24.32
2017-08-06T15:00:30.460Z,24.35
2017-08-06T15:01:40.674Z,24.3
2017-08-06T15:02:51.511Z,24.31
2017-08-06T15:04:01.255Z,24.35
2017-08-06T15:05:11.254Z,24.31
2017-08-06T15:06:21.252Z,24.45
2017-08-06T15:07:31.225Z,24.46
2017-08-06T15:08:41.200Z,24.47